Portada
METAR-TAF:

METAR-TAF

Aeroports :

Aeroport de Can Tho

Cần Thơ, Vietnam

latitud: 10-05-07N, longitud: 105-42-43E, altitud: 3 m

Observació

L'informe es va fer fa 30 minuts, a les 17:30 UTC
Vent 5 kt del Est
Temperatura 25°C
Humitat 89%
Pressió 1015 hPa
Visibilitat: 8000 m

METAR: VVCT 211730Z 10005KT 8000 NSC 25/23 Q1015 NOSIG

Hora: 01:00 (18:00 UTC)

Pronòstic

L'informe es va fer fa 1 hora i 0 minuts, a les 17:00 UTC
Pronòstic vàlid del 21 a les 18 UTC al 22 a les 18 UTC
Vent 4 kt del Est
Visibilitat 10 km o més
Núvols disperses a una alçada de 1500 ft
Evolucionant progressivament
l' 22 a les 01 UTC al 22 a les 02 UTC
Vent 14 kt del Est

TAF: VVCT 211700Z 2118/2218 08004KT 9999 SCT015 BECMG 2201/2202 08014KT

Observacions i pronòstics meteorològics de més de 4000 aeroports (METAR i TAF).

Les estacions disponibles són els punts grocs i vermells al mapa.

Posi el ratolí al punt desitjat per veure el nom de l'estació.

Feu clic per veure les observacions i els pronòstics meteorològics.

Per canviar el mapa: feu clic els botons verds amb una creu de color negre per apropar; al botó verd amb un guió per allunyar la imatge; o en les fletxes verdes per a mapes adjacents.


METAR-TAF: